createdAt,value
2023-06-30T13:52:57.231Z,15.70
2023-06-30T13:55:28.606Z,14.02
2023-06-30T13:57:59.802Z,15.60
2023-06-30T14:00:28.474Z,14.48
2023-06-30T14:02:57.471Z,17.33
2023-06-30T14:05:26.479Z,15.18
2023-06-30T14:07:54.780Z,16.27
2023-06-30T14:10:23.700Z,15.88
2023-06-30T14:12:52.003Z,14.50
2023-06-30T14:15:21.084Z,14.10
2023-06-30T14:17:49.564Z,13.77
2023-06-30T14:20:17.735Z,13.07
2023-06-30T14:22:45.916Z,12.90
2023-06-30T14:25:25.636Z,13.10
2023-06-30T17:50:48.097Z,16.23
2023-06-30T17:53:16.577Z,14.60
2023-06-30T17:55:52.001Z,15.70
2023-06-30T17:58:21.612Z,15.00
2023-06-30T18:00:50.246Z,14.88
2023-06-30T18:03:18.783Z,13.73
2023-06-30T18:05:47.111Z,14.27
2023-06-30T18:08:15.576Z,13.90
2023-06-30T18:10:44.682Z,15.25
2023-06-30T18:13:13.495Z,16.40
2023-06-30T18:15:41.855Z,14.13
2023-06-30T18:18:10.478Z,14.70
2023-06-30T18:20:39.147Z,14.02
2023-06-30T18:23:07.573Z,14.63
2023-06-30T18:25:36.433Z,14.15
2023-06-30T18:28:05.374Z,14.60
2023-06-30T18:30:33.990Z,15.00
2023-06-30T18:33:02.478Z,15.77
2023-06-30T18:35:31.230Z,14.98
2023-06-30T18:37:59.778Z,14.90
2023-06-30T18:40:28.436Z,13.70
2023-06-30T18:42:57.297Z,14.82
2023-06-30T18:45:25.939Z,14.55
2023-06-30T18:47:54.662Z,14.80
2023-06-30T18:50:24.461Z,16.02
2023-06-30T18:52:52.787Z,13.82
2023-06-30T18:55:21.580Z,14.93
2023-06-30T18:57:50.082Z,15.45
2023-06-30T19:00:18.859Z,15.80
2023-06-30T19:02:47.077Z,15.77
2023-06-30T19:05:15.086Z,16.30
2023-06-30T19:07:43.082Z,15.90
2023-06-30T19:10:11.885Z,15.52
2023-06-30T19:12:40.161Z,16.10
2023-06-30T19:15:08.985Z,15.98
2023-06-30T19:17:37.721Z,15.13
2023-06-30T19:20:06.548Z,15.13
2023-06-30T19:22:35.068Z,16.35
2023-06-30T19:25:04.710Z,16.73
2023-06-30T19:27:33.434Z,16.67
2023-06-30T19:30:02.411Z,15.18
2023-06-30T19:32:32.598Z,15.88
2023-06-30T19:35:01.385Z,16.63
2023-06-30T19:37:30.330Z,17.55
2023-06-30T19:39:59.373Z,17.38
2023-06-30T19:42:28.220Z,17.30
2023-06-30T19:44:57.395Z,17.02
2023-06-30T19:47:26.302Z,17.00
2023-06-30T19:49:55.466Z,17.20
2023-06-30T19:52:23.754Z,17.00
2023-06-30T19:54:52.532Z,18.38
2023-06-30T19:57:20.789Z,18.63
2023-06-30T19:59:49.055Z,18.88
2023-06-30T20:02:17.828Z,17.80
2023-06-30T20:04:46.621Z,18.08
2023-06-30T20:07:15.302Z,18.17
2023-06-30T20:09:43.891Z,18.63
2023-06-30T20:12:12.625Z,17.98
2023-06-30T20:14:41.045Z,19.50
2023-06-30T20:17:10.753Z,18.50
2023-06-30T20:19:41.168Z,20.85
2023-06-30T20:22:09.628Z,19.65
2023-06-30T20:24:38.529Z,21.02
2023-06-30T20:27:08.199Z,20.83
2023-06-30T20:29:36.564Z,21.90
2023-06-30T20:32:05.593Z,18.95
2023-06-30T20:34:33.920Z,20.20
2023-06-30T20:37:02.640Z,20.45
2023-06-30T20:39:31.033Z,19.70
2023-06-30T20:41:59.964Z,21.02
2023-06-30T20:44:28.640Z,21.52
2023-06-30T20:46:57.161Z,22.30
2023-06-30T20:49:25.775Z,20.90
2023-06-30T20:51:55.328Z,22.77
2023-06-30T20:54:25.712Z,22.50
2023-06-30T20:56:56.254Z,22.83
2023-06-30T20:59:24.552Z,21.98
2023-06-30T21:01:53.668Z,21.73
2023-06-30T21:04:22.160Z,21.63
2023-06-30T21:06:50.816Z,23.40
2023-06-30T21:09:19.697Z,23.48
2023-06-30T21:11:49.148Z,24.30
2023-06-30T21:14:18.226Z,23.63
2023-06-30T21:16:46.573Z,23.08
2023-06-30T21:19:15.313Z,23.70
2023-06-30T21:21:43.732Z,23.58
2023-06-30T21:24:12.683Z,22.63
2023-06-30T21:26:43.123Z,22.63
2023-06-30T21:29:13.893Z,22.60
2023-06-30T21:31:42.460Z,22.48
2023-06-30T21:34:11.419Z,25.00
2023-06-30T21:36:40.570Z,25.13
2023-06-30T21:39:08.969Z,23.92
2023-06-30T21:41:40.103Z,26.27
2023-06-30T21:44:08.659Z,24.88
2023-06-30T21:46:37.440Z,25.00
2023-06-30T21:49:05.863Z,26.00
2023-06-30T21:51:34.169Z,26.55
2023-06-30T21:54:07.470Z,28.55
2023-06-30T21:56:35.612Z,29.33
2023-06-30T21:59:06.952Z,30.40
2023-06-30T22:01:41.179Z,26.35
2023-06-30T22:04:10.852Z,25.88
2023-06-30T22:06:39.621Z,27.38
2023-06-30T22:09:15.942Z,28.27
